createdAt,value
2023-03-07T00:00:19.714Z,13.15
2023-03-07T00:01:01.539Z,13.07
2023-03-07T00:01:43.189Z,13.85
2023-03-07T00:02:25.083Z,14.65
2023-03-07T00:03:06.872Z,12.55
2023-03-07T00:03:48.588Z,14.68
2023-03-07T00:04:30.642Z,13.02
2023-03-07T00:05:14.836Z,13.00
2023-03-07T00:06:08.714Z,12.82
2023-03-07T00:06:50.353Z,12.93
2023-03-07T00:07:32.114Z,13.85
2023-03-07T00:08:13.816Z,14.23
2023-03-07T00:08:58.760Z,15.77
2023-03-07T00:09:40.405Z,13.65
2023-03-07T00:10:22.094Z,13.05
2023-03-07T00:11:08.581Z,14.88
2023-03-07T00:11:50.697Z,13.30
2023-03-07T00:12:32.335Z,13.35
2023-03-07T00:13:13.955Z,14.32
2023-03-07T00:13:55.952Z,13.05
2023-03-07T00:14:37.688Z,13.32
2023-03-07T00:15:19.349Z,13.77
2023-03-07T00:16:05.756Z,13.90
2023-03-07T00:16:51.215Z,12.85
2023-03-07T00:17:35.154Z,12.95
2023-03-07T00:18:16.800Z,13.07
2023-03-07T00:18:58.435Z,13.25
2023-03-07T00:19:44.819Z,13.27
2023-03-07T00:20:26.455Z,16.20
2023-03-07T00:21:13.391Z,14.02
2023-03-07T00:21:54.998Z,13.27
2023-03-07T00:22:37.674Z,14.65
2023-03-07T00:23:19.317Z,12.50
2023-03-07T00:24:01.050Z,12.63
2023-03-07T00:24:42.780Z,14.05
2023-03-07T00:25:24.363Z,12.10
2023-03-07T00:26:11.776Z,13.52
2023-03-07T00:26:54.621Z,13.48
2023-03-07T00:27:36.720Z,13.52
2023-03-07T00:28:18.330Z,13.10
2023-03-07T00:28:59.931Z,15.95
2023-03-07T00:29:41.532Z,15.57
2023-03-07T00:30:23.111Z,14.52
2023-03-07T00:31:07.442Z,13.40
2023-03-07T00:31:49.190Z,12.65
2023-03-07T00:32:31.095Z,13.18
2023-03-07T00:33:12.867Z,16.48
2023-03-07T00:33:54.497Z,14.82
2023-03-07T00:34:36.158Z,14.35
2023-03-07T00:35:17.937Z,13.05
2023-03-07T00:36:05.272Z,13.60
2023-03-07T00:36:46.959Z,14.43
2023-03-07T00:37:30.735Z,13.80
2023-03-07T00:38:12.400Z,13.98
2023-03-07T00:38:54.524Z,14.48
2023-03-07T00:39:36.102Z,13.93
2023-03-07T00:40:18.020Z,12.63
2023-03-07T00:41:07.812Z,13.90
2023-03-07T00:41:49.596Z,16.23
2023-03-07T00:42:31.174Z,13.38
2023-03-07T00:43:12.738Z,13.15
2023-03-07T00:43:55.948Z,12.93
2023-03-07T00:44:37.705Z,14.27
2023-03-07T00:45:19.339Z,12.15
2023-03-07T00:46:01.682Z,13.98
2023-03-07T00:46:43.359Z,13.02
2023-03-07T00:47:25.029Z,12.18
2023-03-07T00:48:06.767Z,13.10
2023-03-07T00:48:48.764Z,12.25
2023-03-07T00:49:32.530Z,12.73
2023-03-07T00:50:14.391Z,13.63
2023-03-07T00:50:56.770Z,12.43
2023-03-07T00:51:39.968Z,13.15
2023-03-07T00:52:21.945Z,12.27
2023-03-07T00:53:03.840Z,12.38
2023-03-07T00:53:46.351Z,13.25
2023-03-07T00:54:28.056Z,13.18
2023-03-07T00:55:10.482Z,13.32
2023-03-07T00:56:05.494Z,14.95
2023-03-07T00:56:47.173Z,14.13
2023-03-07T00:57:29.103Z,13.20
2023-03-07T00:58:10.732Z,15.02
2023-03-07T00:58:52.733Z,13.88
2023-03-07T00:59:34.526Z,14.60
2023-03-07T01:00:16.182Z,13.60
2023-03-07T01:00:58.879Z,17.17
2023-03-07T01:01:41.648Z,15.07
2023-03-07T01:02:23.296Z,17.67
2023-03-07T01:03:04.979Z,15.55
2023-03-07T01:03:49.657Z,16.10
2023-03-07T01:04:31.482Z,14.20
2023-03-07T01:05:13.331Z,14.43
2023-03-07T01:05:55.643Z,15.50
2023-03-07T01:06:37.951Z,13.88
2023-03-07T01:07:19.699Z,15.63
2023-03-07T01:08:01.473Z,15.43
2023-03-07T01:08:44.006Z,13.95
2023-03-07T01:09:26.921Z,14.73
2023-03-07T01:10:09.373Z,17.27
2023-03-07T01:10:51.209Z,16.67
2023-03-07T01:11:34.362Z,16.60
2023-03-07T01:12:16.096Z,16.08
2023-03-07T01:12:57.750Z,17.45
2023-03-07T01:13:39.856Z,15.73
2023-03-07T01:14:21.539Z,17.35
2023-03-07T01:15:05.265Z,15.57
2023-03-07T01:15:47.093Z,17.23
2023-03-07T01:16:31.391Z,17.58
2023-03-07T01:17:13.105Z,16.98
2023-03-07T01:17:54.799Z,17.67
2023-03-07T01:18:37.005Z,17.77
2023-03-07T01:19:20.844Z,15.88
2023-03-07T01:20:06.988Z,16.50
2023-03-07T01:20:49.754Z,16.83
2023-03-07T01:21:34.289Z,17.35
2023-03-07T01:22:18.133Z,16.20
2023-03-07T01:23:00.214Z,17.60
2023-03-07T01:23:42.566Z,19.33
2023-03-07T01:24:25.578Z,16.50
2023-03-07T01:25:08.050Z,16.73
2023-03-07T01:25:49.936Z,17.50
2023-03-07T01:26:33.136Z,17.35
2023-03-07T01:27:15.124Z,14.82
2023-03-07T01:27:57.053Z,16.00
2023-03-07T01:28:43.230Z,17.48
2023-03-07T01:29:25.428Z,15.70
2023-03-07T01:30:08.366Z,17.80
2023-03-07T01:30:59.806Z,17.67
2023-03-07T01:31:42.238Z,15.45
2023-03-07T01:32:24.263Z,16.35
2023-03-07T01:33:05.914Z,17.20
2023-03-07T01:33:48.424Z,16.42
2023-03-07T01:34:30.544Z,17.70
2023-03-07T01:35:12.189Z,17.80
2023-03-07T01:35:54.460Z,17.52
2023-03-07T01:36:37.308Z,16.77
2023-03-07T01:37:19.747Z,18.95
2023-03-07T01:38:01.740Z,18.95
2023-03-07T01:38:43.407Z,17.35
2023-03-07T01:39:26.234Z,17.98
2023-03-07T01:40:12.586Z,16.98
2023-03-07T01:40:54.628Z,18.92
2023-03-07T01:41:37.442Z,21.40
2023-03-07T01:42:21.811Z,18.60
2023-03-07T01:43:25.796Z,21.08
2023-03-07T01:44:19.805Z,16.80
2023-03-07T01:45:33.289Z,16.17
2023-03-07T01:46:18.234Z,18.63
2023-03-07T01:47:03.879Z,17.13
2023-03-07T01:48:02.851Z,18.67
2023-03-07T01:48:51.099Z,18.83
2023-03-07T01:49:34.087Z,17.80
2023-03-07T01:50:19.147Z,17.63
2023-03-07T01:51:01.576Z,18.75
2023-03-07T01:51:49.306Z,18.98
2023-03-07T01:52:35.553Z,17.98
2023-03-07T01:53:21.554Z,17.45
2023-03-07T01:54:06.166Z,17.40
2023-03-07T01:54:52.471Z,18.55
2023-03-07T01:55:37.359Z,18.58
2023-03-07T01:56:26.358Z,18.55
2023-03-07T01:57:08.438Z,17.35
2023-03-07T01:57:52.600Z,18.00
2023-03-07T01:58:38.065Z,18.30
2023-03-07T01:59:34.621Z,18.27
2023-03-07T02:00:25.404Z,18.60
2023-03-07T02:01:10.047Z,16.92
2023-03-07T02:01:52.025Z,17.02
2023-03-07T02:02:35.221Z,16.27
2023-03-07T02:03:26.140Z,18.10
2023-03-07T02:04:28.253Z,16.70
2023-03-07T02:05:19.286Z,16.10
2023-03-07T02:06:04.034Z,16.63
2023-03-07T02:06:47.099Z,18.95
2023-03-07T02:07:35.155Z,15.90
2023-03-07T02:08:20.073Z,14.05
2023-03-07T02:09:03.357Z,19.25
2023-03-07T02:09:48.062Z,20.23
2023-03-07T02:10:30.995Z,17.25
2023-03-07T02:11:12.994Z,15.35
2023-03-07T02:11:56.757Z,17.75
2023-03-07T02:12:40.226Z,18.13
2023-03-07T02:13:21.914Z,19.27
2023-03-07T02:14:03.527Z,18.73
2023-03-07T02:14:48.461Z,17.45
2023-03-07T02:15:30.145Z,16.77
2023-03-07T02:16:12.083Z,17.27
2023-03-07T02:16:54.246Z,17.58
2023-03-07T02:17:36.346Z,17.20
2023-03-07T02:18:24.241Z,17.92
2023-03-07T02:19:47.517Z,18.27
2023-03-07T02:20:52.014Z,16.50
2023-03-07T02:21:44.017Z,16.50
2023-03-07T02:22:26.240Z,16.55
2023-03-07T02:23:13.682Z,17.52
2023-03-07T02:24:14.384Z,18.13
2023-03-07T02:25:01.003Z,17.90
2023-03-07T02:25:51.067Z,19.23
2023-03-07T02:26:32.713Z,20.35
2023-03-07T02:27:15.074Z,18.42
2023-03-07T02:27:58.931Z,16.60
2023-03-07T02:28:42.583Z,19.02
2023-03-07T02:29:25.098Z,19.88
2023-03-07T02:30:08.193Z,18.52
2023-03-07T02:30:55.442Z,16.60
2023-03-07T02:31:37.827Z,17.90
2023-03-07T02:32:19.632Z,16.15
2023-03-07T02:33:01.358Z,16.88
2023-03-07T02:33:43.134Z,19.13
2023-03-07T02:34:29.263Z,18.60
2023-03-07T02:35:23.814Z,17.25
2023-03-07T02:36:11.301Z,19.20
2023-03-07T02:37:05.021Z,17.85
2023-03-07T02:37:52.149Z,19.13
2023-03-07T02:38:38.139Z,18.27
2023-03-07T02:39:22.782Z,21.60
2023-03-07T02:40:11.721Z,18.58
2023-03-07T02:40:55.469Z,19.17
2023-03-07T02:41:39.098Z,20.27
2023-03-07T02:42:31.070Z,20.13
2023-03-07T02:43:25.767Z,20.85
2023-03-07T02:44:07.435Z,19.80
2023-03-07T02:44:57.307Z,21.15
2023-03-07T02:45:39.821Z,20.00
2023-03-07T02:46:21.502Z,20.65
2023-03-07T02:47:03.289Z,21.23
2023-03-07T02:47:46.142Z,20.40
2023-03-07T02:48:31.029Z,20.00
2023-03-07T02:49:13.818Z,21.40
2023-03-07T02:49:55.764Z,19.27
2023-03-07T02:50:37.588Z,19.17
2023-03-07T02:51:19.211Z,19.42
2023-03-07T02:52:02.721Z,19.42
2023-03-07T02:52:44.881Z,21.00
2023-03-07T02:53:27.148Z,18.40
2023-03-07T02:54:09.100Z,19.23
2023-03-07T02:54:50.750Z,20.70
2023-03-07T02:55:33.603Z,19.00
2023-03-07T02:56:17.985Z,21.45
2023-03-07T02:56:59.681Z,19.02
2023-03-07T02:57:41.280Z,18.73
2023-03-07T02:58:22.984Z,18.90
2023-03-07T02:59:04.797Z,21.85
2023-03-07T02:59:46.767Z,24.58
2023-03-07T03:00:28.564Z,17.65
2023-03-07T03:01:10.978Z,19.55
2023-03-07T03:01:52.816Z,16.70
2023-03-07T03:02:35.046Z,18.42
2023-03-07T03:03:16.899Z,16.98
2023-03-07T03:03:59.065Z,17.40
2023-03-07T03:04:40.779Z,18.73
2023-03-07T03:05:24.046Z,19.70
2023-03-07T03:06:07.323Z,18.73
2023-03-07T03:06:50.077Z,19.10
2023-03-07T03:07:31.748Z,18.45
2023-03-07T03:08:13.487Z,19.92
2023-03-07T03:08:55.196Z,19.75
2023-03-07T03:09:36.808Z,20.02
2023-03-07T03:10:18.983Z,23.40
2023-03-07T03:11:00.983Z,18.98
2023-03-07T03:11:43.798Z,18.75
2023-03-07T03:12:25.731Z,18.02
2023-03-07T03:13:07.452Z,18.25
2023-03-07T03:13:49.117Z,18.40
2023-03-07T03:14:30.784Z,18.10
2023-03-07T03:15:12.476Z,18.13
2023-03-07T03:15:57.834Z,19.13
2023-03-07T03:16:40.198Z,17.38
2023-03-07T03:17:21.930Z,18.88
2023-03-07T03:18:03.596Z,19.17
2023-03-07T03:18:45.624Z,16.85
2023-03-07T03:19:29.092Z,17.70
2023-03-07T03:20:12.923Z,19.35
2023-03-07T03:20:54.602Z,16.95
2023-03-07T03:21:36.224Z,18.92
2023-03-07T03:22:17.920Z,20.25
2023-03-07T03:23:02.074Z,17.67
2023-03-07T03:23:44.071Z,17.65
2023-03-07T03:24:25.797Z,16.38
2023-03-07T03:25:10.662Z,16.77
2023-03-07T03:26:01.253Z,18.23
2023-03-07T03:26:45.685Z,15.98
2023-03-07T03:27:28.001Z,18.50
2023-03-07T03:28:09.694Z,18.10
2023-03-07T03:28:54.272Z,20.35
2023-03-07T03:29:36.322Z,18.33
2023-03-07T03:30:19.508Z,18.25
2023-03-07T03:31:04.099Z,19.05
2023-03-07T03:31:46.477Z,19.77
2023-03-07T03:32:28.191Z,17.50
2023-03-07T03:33:09.803Z,19.25
2023-03-07T03:33:52.635Z,17.58
2023-03-07T03:34:34.417Z,16.98
2023-03-07T03:35:16.150Z,16.70
2023-03-07T03:36:00.715Z,17.33
2023-03-07T03:36:42.511Z,18.20
2023-03-07T03:37:25.248Z,18.95
2023-03-07T03:38:07.330Z,18.15
2023-03-07T03:38:49.354Z,16.92
2023-03-07T03:39:30.967Z,16.88
2023-03-07T03:40:14.712Z,16.15
2023-03-07T03:40:57.654Z,15.95
2023-03-07T03:41:39.273Z,17.25
2023-03-07T03:42:20.917Z,18.83
2023-03-07T03:43:03.010Z,19.55
2023-03-07T03:43:44.717Z,17.25
2023-03-07T03:44:26.495Z,16.70
2023-03-07T03:45:10.017Z,17.92
2023-03-07T03:45:56.107Z,18.58
2023-03-07T03:46:39.001Z,17.63
2023-03-07T03:47:20.964Z,18.55
2023-03-07T03:48:02.697Z,17.98
2023-03-07T03:48:44.701Z,17.67
2023-03-07T03:49:27.251Z,16.55
2023-03-07T03:50:10.656Z,17.90
2023-03-07T03:51:04.884Z,16.85
2023-03-07T03:51:46.601Z,17.95
2023-03-07T03:52:28.489Z,16.52
2023-03-07T03:53:10.058Z,16.15
2023-03-07T03:53:52.064Z,17.83
2023-03-07T03:54:36.064Z,16.65
2023-03-07T03:55:18.106Z,16.92
2023-03-07T03:56:05.909Z,17.67
2023-03-07T03:56:47.659Z,19.40
2023-03-07T03:57:29.330Z,17.52
2023-03-07T03:58:11.158Z,17.65
2023-03-07T03:58:55.359Z,16.27
2023-03-07T03:59:37.067Z,16.35
2023-03-07T04:00:21.092Z,17.55
2023-03-07T04:01:07.581Z,17.85
2023-03-07T04:01:49.665Z,15.75
2023-03-07T04:02:34.048Z,17.38
2023-03-07T04:03:15.877Z,15.57
2023-03-07T04:03:58.576Z,17.05
2023-03-07T04:04:40.245Z,15.75
2023-03-07T04:05:22.039Z,17.42
2023-03-07T04:06:05.803Z,15.75
2023-03-07T04:06:48.267Z,17.27
2023-03-07T04:07:29.870Z,16.58
2023-03-07T04:08:11.511Z,16.05
2023-03-07T04:08:54.293Z,15.90
2023-03-07T04:09:35.886Z,16.60
2023-03-07T04:10:19.395Z,16.85
2023-03-07T04:11:01.248Z,16.35
2023-03-07T04:11:42.948Z,15.75
2023-03-07T04:12:25.100Z,15.82
2023-03-07T04:13:06.776Z,17.98
2023-03-07T04:13:48.904Z,16.77
2023-03-07T04:14:30.610Z,16.92
2023-03-07T04:15:12.539Z,16.02
2023-03-07T04:15:57.190Z,16.35
2023-03-07T04:16:39.167Z,16.52
2023-03-07T04:17:20.885Z,17.02
2023-03-07T04:18:02.609Z,16.23
2023-03-07T04:18:44.749Z,15.55
2023-03-07T04:19:27.030Z,16.95
2023-03-07T04:20:17.275Z,14.95
2023-03-07T04:20:58.910Z,17.85
2023-03-07T04:21:41.050Z,15.85
2023-03-07T04:22:23.147Z,15.57
2023-03-07T04:23:04.842Z,16.85
2023-03-07T04:23:49.502Z,16.80
2023-03-07T04:24:31.199Z,18.70
2023-03-07T04:25:12.942Z,16.33
2023-03-07T04:25:59.655Z,15.48
2023-03-07T04:26:42.125Z,17.90
2023-03-07T04:27:24.500Z,15.32
2023-03-07T04:28:06.218Z,16.83
2023-03-07T04:28:51.447Z,15.95
2023-03-07T04:29:40.734Z,15.50
2023-03-07T04:30:32.827Z,16.75
2023-03-07T04:31:20.246Z,17.10
2023-03-07T04:32:02.278Z,15.43
2023-03-07T04:32:44.082Z,16.38
2023-03-07T04:33:27.338Z,15.77
2023-03-07T04:34:09.036Z,17.23
2023-03-07T04:34:50.701Z,15.50
2023-03-07T04:35:32.379Z,16.10
2023-03-07T04:36:19.004Z,15.18
2023-03-07T04:37:00.652Z,16.00
2023-03-07T04:37:42.215Z,14.32
2023-03-07T04:38:23.848Z,15.43
2023-03-07T04:39:05.595Z,16.08
2023-03-07T04:39:48.660Z,16.13
2023-03-07T04:40:30.519Z,15.98
2023-03-07T04:41:14.609Z,14.35
2023-03-07T04:41:56.428Z,15.52
2023-03-07T04:42:38.871Z,16.90
2023-03-07T04:43:21.756Z,14.60
2023-03-07T04:44:03.406Z,15.05
2023-03-07T04:44:45.027Z,14.88
2023-03-07T04:45:27.248Z,16.13
2023-03-07T04:46:10.212Z,15.60
2023-03-07T04:46:51.858Z,16.63
2023-03-07T04:47:33.516Z,14.43
2023-03-07T04:48:15.511Z,15.93
2023-03-07T04:48:57.220Z,14.98
2023-03-07T04:49:39.466Z,16.45
2023-03-07T04:50:22.228Z,14.85
2023-03-07T04:51:04.820Z,15.80
2023-03-07T04:51:46.377Z,14.32
2023-03-07T04:52:30.233Z,14.35
2023-03-07T04:53:11.831Z,14.13
2023-03-07T04:53:53.543Z,14.55
2023-03-07T04:54:35.261Z,15.02
2023-03-07T04:55:18.294Z,15.10
2023-03-07T04:56:02.606Z,15.27
2023-03-07T04:56:45.219Z,14.68
2023-03-07T04:57:27.017Z,15.35
2023-03-07T04:58:12.888Z,15.88
2023-03-07T04:58:55.297Z,15.75
2023-03-07T04:59:39.207Z,13.45
2023-03-07T05:00:21.240Z,15.32
2023-03-07T05:01:05.154Z,16.20
2023-03-07T05:01:46.844Z,15.27
2023-03-07T05:02:28.657Z,15.43
2023-03-07T05:03:11.580Z,14.82
2023-03-07T05:03:53.227Z,14.45
2023-03-07T05:04:35.925Z,15.10
2023-03-07T05:05:17.803Z,15.45
2023-03-07T05:06:17.429Z,16.38
2023-03-07T05:07:04.708Z,15.68
2023-03-07T05:07:46.344Z,15.07
2023-03-07T05:08:28.562Z,13.50
2023-03-07T05:09:10.195Z,15.27
2023-03-07T05:09:51.794Z,14.13
2023-03-07T05:10:34.679Z,15.65
2023-03-07T05:11:18.413Z,15.73
2023-03-07T05:12:00.044Z,15.88
2023-03-07T05:12:41.702Z,13.57
2023-03-07T05:13:25.512Z,15.68
2023-03-07T05:14:07.437Z,15.20
2023-03-07T05:14:49.165Z,14.75
2023-03-07T05:15:31.366Z,15.65
2023-03-07T05:16:13.189Z,16.30
2023-03-07T05:16:54.911Z,15.30
2023-03-07T05:17:37.065Z,13.77
2023-03-07T05:18:18.805Z,13.63
2023-03-07T05:19:00.996Z,14.73
2023-03-07T05:19:45.279Z,12.45
2023-03-07T05:20:29.585Z,13.13
2023-03-07T05:21:11.276Z,15.10
2023-03-07T05:21:54.229Z,12.95
2023-03-07T05:22:35.934Z,14.68
2023-03-07T05:23:19.007Z,13.40
2023-03-07T05:24:02.804Z,12.90
2023-03-07T05:24:45.777Z,14.23
2023-03-07T05:25:28.568Z,13.50
2023-03-07T05:26:10.651Z,13.80
2023-03-07T05:26:52.555Z,12.23
2023-03-07T05:27:34.220Z,13.85
2023-03-07T05:28:16.915Z,12.30
2023-03-07T05:28:59.057Z,12.88
2023-03-07T05:29:40.772Z,11.98
2023-03-07T05:30:22.371Z,13.63
2023-03-07T05:31:04.287Z,16.10
2023-03-07T05:31:46.582Z,12.27
2023-03-07T05:32:28.370Z,13.43
2023-03-07T05:33:10.117Z,12.65
2023-03-07T05:33:52.703Z,13.45
2023-03-07T05:34:34.373Z,13.73
2023-03-07T05:35:16.292Z,13.02
2023-03-07T05:36:00.668Z,12.48
2023-03-07T05:36:43.545Z,13.57
2023-03-07T05:37:25.497Z,14.45
2023-03-07T05:38:08.112Z,12.05
2023-03-07T05:38:49.872Z,12.60
2023-03-07T05:39:31.892Z,15.38
2023-03-07T05:40:14.132Z,13.38
2023-03-07T05:40:59.288Z,14.15
2023-03-07T05:41:40.875Z,11.95
2023-03-07T05:42:22.572Z,12.95
2023-03-07T05:43:04.880Z,11.65
2023-03-07T05:43:46.934Z,13.07
2023-03-07T05:44:28.513Z,13.20
2023-03-07T05:45:11.570Z,12.75
2023-03-07T05:45:53.464Z,13.02
2023-03-07T05:46:35.484Z,13.25
2023-03-07T05:47:18.369Z,13.20
2023-03-07T05:48:00.064Z,11.88
2023-03-07T05:48:41.708Z,12.70
2023-03-07T05:49:24.871Z,13.40
2023-03-07T05:50:07.824Z,12.07
2023-03-07T05:50:49.604Z,12.25
2023-03-07T05:51:32.719Z,12.75
2023-03-07T05:52:14.313Z,12.30
2023-03-07T05:52:56.038Z,14.75
2023-03-07T05:53:41.453Z,13.68
2023-03-07T05:54:23.282Z,12.05
2023-03-07T05:55:05.334Z,13.55
2023-03-07T05:55:47.739Z,11.90
2023-03-07T05:56:32.311Z,11.55
2023-03-07T05:57:14.054Z,13.80
2023-03-07T05:57:56.060Z,12.63
2023-03-07T05:58:37.886Z,11.75
2023-03-07T05:59:19.713Z,12.18
2023-03-07T06:00:06.303Z,12.52
2023-03-07T06:00:55.662Z,11.20
2023-03-07T06:01:37.672Z,11.35
2023-03-07T06:02:19.364Z,11.38
2023-03-07T06:03:04.330Z,11.10
2023-03-07T06:03:47.687Z,12.05
2023-03-07T06:04:29.432Z,12.23
2023-03-07T06:05:11.126Z,12.35
2023-03-07T06:05:52.809Z,12.27
2023-03-07T06:06:34.487Z,11.90
2023-03-07T06:07:16.174Z,12.52
2023-03-07T06:07:58.062Z,11.48
2023-03-07T06:08:39.704Z,12.10
2023-03-07T06:09:23.504Z,11.48
2023-03-07T06:10:07.014Z,12.80
2023-03-07T06:10:54.184Z,10.90
2023-03-07T06:11:36.213Z,10.73
2023-03-07T06:12:18.488Z,14.13
2023-03-07T06:13:00.271Z,11.80
2023-03-07T06:13:41.876Z,11.02
2023-03-07T06:14:23.971Z,10.80
2023-03-07T06:15:06.366Z,12.32
2023-03-07T06:15:54.272Z,11.45
2023-03-07T06:16:36.809Z,12.05
2023-03-07T06:17:18.566Z,11.80
2023-03-07T06:18:00.278Z,10.98
2023-03-07T06:18:42.044Z,11.38
2023-03-07T06:19:23.723Z,11.60
2023-03-07T06:20:07.357Z,12.23
2023-03-07T06:21:03.296Z,12.35
2023-03-07T06:21:48.490Z,13.00
2023-03-07T06:22:31.830Z,12.88
2023-03-07T06:23:13.528Z,11.80
2023-03-07T06:23:56.284Z,12.88
2023-03-07T06:24:38.062Z,12.77
2023-03-07T06:25:21.623Z,11.02
2023-03-07T06:26:04.880Z,11.60
2023-03-07T06:26:46.745Z,11.10
2023-03-07T06:27:35.772Z,11.95
2023-03-07T06:28:17.678Z,12.52
2023-03-07T06:29:00.178Z,10.65
2023-03-07T06:29:42.236Z,10.63
2023-03-07T06:30:23.871Z,13.13
2023-03-07T06:31:10.318Z,10.63
2023-03-07T06:31:52.141Z,11.57
2023-03-07T06:32:33.911Z,10.80
2023-03-07T06:33:17.487Z,11.93
2023-03-07T06:33:59.254Z,11.98
2023-03-07T06:34:41.701Z,11.27
2023-03-07T06:35:23.374Z,12.95
2023-03-07T06:36:11.242Z,11.95
2023-03-07T06:36:54.685Z,12.13
2023-03-07T06:37:36.359Z,11.27
2023-03-07T06:38:18.361Z,10.35
2023-03-07T06:39:00.345Z,11.55
2023-03-07T06:39:42.802Z,11.68
2023-03-07T06:40:24.523Z,11.52
2023-03-07T06:41:06.358Z,12.45
2023-03-07T06:41:51.125Z,10.35
2023-03-07T06:42:32.871Z,10.77
2023-03-07T06:43:14.890Z,10.02
2023-03-07T06:43:56.656Z,10.85
2023-03-07T06:44:44.438Z,10.43
2023-03-07T06:45:26.372Z,11.82
2023-03-07T06:46:08.250Z,10.40
2023-03-07T06:46:53.719Z,13.80
2023-03-07T06:47:36.205Z,10.70
2023-03-07T06:48:19.675Z,11.77
2023-03-07T06:49:01.309Z,10.02
2023-03-07T06:49:43.222Z,10.80
2023-03-07T06:50:34.661Z,10.15
2023-03-07T06:51:17.102Z,10.25
2023-03-07T06:52:00.295Z,10.60
2023-03-07T06:52:42.140Z,10.55
2023-03-07T06:53:23.766Z,10.30
2023-03-07T06:54:05.910Z,12.50
2023-03-07T06:54:47.735Z,10.85
2023-03-07T06:55:29.393Z,9.48
2023-03-07T06:56:11.081Z,10.25
2023-03-07T06:56:55.069Z,11.85
2023-03-07T06:57:38.294Z,11.23
2023-03-07T06:58:21.160Z,9.55
2023-03-07T06:59:03.287Z,10.25
2023-03-07T06:59:45.295Z,10.43
2023-03-07T07:00:27.515Z,11.65
2023-03-07T07:01:18.915Z,10.93
2023-03-07T07:02:03.654Z,12.25
2023-03-07T07:02:45.776Z,11.00
2023-03-07T07:03:27.564Z,10.77
2023-03-07T07:04:11.452Z,11.02
2023-03-07T07:04:59.536Z,11.32
2023-03-07T07:05:42.463Z,10.32
2023-03-07T07:06:24.146Z,12.00
2023-03-07T07:07:07.395Z,10.65
2023-03-07T07:07:49.882Z,9.95
2023-03-07T07:08:31.616Z,10.13
2023-03-07T07:09:14.169Z,11.00
2023-03-07T07:09:56.167Z,9.50
2023-03-07T07:10:38.150Z,10.00
2023-03-07T07:11:21.307Z,10.38
2023-03-07T07:12:04.945Z,11.90
2023-03-07T07:12:47.626Z,10.43
2023-03-07T07:13:29.239Z,12.10
2023-03-07T07:14:13.879Z,9.77
2023-03-07T07:14:56.851Z,9.45
2023-03-07T07:15:38.702Z,9.35
2023-03-07T07:16:20.829Z,10.60
2023-03-07T07:17:05.488Z,9.82
2023-03-07T07:17:47.458Z,10.18
2023-03-07T07:18:29.124Z,9.70
2023-03-07T07:19:10.837Z,10.35
2023-03-07T07:19:52.461Z,12.00
2023-03-07T07:20:34.233Z,10.05
2023-03-07T07:21:17.117Z,9.93
2023-03-07T07:21:58.739Z,10.23
2023-03-07T07:22:40.409Z,11.63
2023-03-07T07:23:22.313Z,10.18
2023-03-07T07:24:04.754Z,9.73
2023-03-07T07:24:46.953Z,10.63
2023-03-07T07:25:28.589Z,9.85
2023-03-07T07:26:10.346Z,9.63
2023-03-07T07:26:52.026Z,11.55
2023-03-07T07:27:33.697Z,11.82
2023-03-07T07:28:16.102Z,10.45
2023-03-07T07:28:57.806Z,10.02
2023-03-07T07:29:39.456Z,10.43
2023-03-07T07:30:21.912Z,10.55
2023-03-07T07:31:04.059Z,10.07
2023-03-07T07:31:46.498Z,9.32
2023-03-07T07:32:28.731Z,10.63
2023-03-07T07:33:10.671Z,11.02
2023-03-07T07:33:52.542Z,13.60
2023-03-07T07:34:35.063Z,12.63
2023-03-07T07:35:16.901Z,12.60
2023-03-07T07:35:59.626Z,10.57
2023-03-07T07:36:41.657Z,9.73
2023-03-07T07:37:23.984Z,12.00
2023-03-07T07:38:05.611Z,10.68
2023-03-07T07:38:47.282Z,10.68
2023-03-07T07:39:29.083Z,11.57
2023-03-07T07:40:11.712Z,10.73
2023-03-07T07:40:53.495Z,10.18
2023-03-07T07:41:35.204Z,11.80
2023-03-07T07:42:17.199Z,9.82
2023-03-07T07:43:18.643Z,10.40
2023-03-07T07:44:04.814Z,10.73
2023-03-07T07:44:51.279Z,10.00
2023-03-07T07:45:32.978Z,9.77
2023-03-07T07:46:14.797Z,10.45
2023-03-07T07:46:57.232Z,11.27
2023-03-07T07:47:38.970Z,9.35
2023-03-07T07:48:20.886Z,10.82
2023-03-07T07:49:03.026Z,9.80
2023-03-07T07:49:44.926Z,11.93
2023-03-07T07:50:26.760Z,10.27
2023-03-07T07:51:08.459Z,11.55
2023-03-07T07:51:52.162Z,11.10
2023-03-07T07:52:34.324Z,12.00
2023-03-07T07:53:18.913Z,11.90
2023-03-07T07:54:01.580Z,9.73
2023-03-07T07:54:43.216Z,12.20
2023-03-07T07:55:25.388Z,10.50
2023-03-07T07:56:08.237Z,10.05
2023-03-07T07:56:49.930Z,9.30
2023-03-07T07:57:31.988Z,11.02
2023-03-07T07:58:14.034Z,10.05
2023-03-07T07:58:55.868Z,10.75
2023-03-07T07:59:37.630Z,11.15
2023-03-07T08:00:21.501Z,9.73
2023-03-07T08:01:13.342Z,9.90
2023-03-07T08:01:55.031Z,10.23
2023-03-07T08:02:37.236Z,10.52
2023-03-07T08:03:19.009Z,11.40
2023-03-07T08:04:00.646Z,10.40
2023-03-07T08:04:42.962Z,9.95
2023-03-07T08:05:24.647Z,9.85
2023-03-07T08:06:06.443Z,9.30
2023-03-07T08:06:48.135Z,11.65
2023-03-07T08:07:29.774Z,9.60
2023-03-07T08:08:11.426Z,9.80
2023-03-07T08:08:54.029Z,9.77
2023-03-07T08:09:35.756Z,9.45
2023-03-07T08:10:17.945Z,8.82
2023-03-07T08:10:59.559Z,9.02
2023-03-07T08:11:41.476Z,11.05
2023-03-07T08:12:27.845Z,11.32
2023-03-07T08:13:13.695Z,8.95
2023-03-07T08:13:55.986Z,8.55
2023-03-07T08:14:37.596Z,8.10
2023-03-07T08:15:21.513Z,12.93
2023-03-07T08:16:14.903Z,9.73
2023-03-07T08:16:56.760Z,8.10
2023-03-07T08:17:38.394Z,8.65
2023-03-07T08:18:20.115Z,9.60
2023-03-07T08:19:01.856Z,9.10
2023-03-07T08:19:43.499Z,9.07
2023-03-07T08:20:25.696Z,11.80
2023-03-07T08:21:08.593Z,9.02
2023-03-07T08:21:50.257Z,11.32
2023-03-07T08:22:32.830Z,7.85
2023-03-07T08:23:14.411Z,7.95
2023-03-07T08:23:57.082Z,9.48
2023-03-07T08:24:40.922Z,8.48
2023-03-07T08:25:24.500Z,11.45
2023-03-07T08:26:08.229Z,8.40
2023-03-07T08:26:49.917Z,8.60
2023-03-07T08:27:31.825Z,9.18
2023-03-07T08:28:13.443Z,9.13
2023-03-07T08:28:55.325Z,14.10
2023-03-07T08:29:37.021Z,9.05
2023-03-07T08:30:19.385Z,9.80
2023-03-07T08:31:23.806Z,7.80
2023-03-07T08:32:05.958Z,9.27
2023-03-07T08:32:51.383Z,8.38
2023-03-07T08:33:33.007Z,8.93
2023-03-07T08:34:14.647Z,8.82
2023-03-07T08:34:56.429Z,8.60
2023-03-07T08:35:40.089Z,13.18
2023-03-07T08:36:22.098Z,9.68
2023-03-07T08:37:03.912Z,11.10
2023-03-07T08:37:46.217Z,8.73
2023-03-07T08:38:28.073Z,10.30
2023-03-07T08:39:09.688Z,9.15
2023-03-07T08:39:51.812Z,9.38
2023-03-07T08:40:33.488Z,8.88
2023-03-07T08:41:15.177Z,9.60
2023-03-07T08:41:56.877Z,8.80
2023-03-07T08:42:38.550Z,8.70
2023-03-07T08:43:20.489Z,10.82
2023-03-07T08:44:02.086Z,8.13
2023-03-07T08:44:43.811Z,8.27
2023-03-07T08:45:25.676Z,7.53
2023-03-07T08:46:07.442Z,8.38
2023-03-07T08:46:49.213Z,8.50
2023-03-07T08:47:30.910Z,8.82
2023-03-07T08:48:12.470Z,7.22
2023-03-07T08:48:54.158Z,7.75
2023-03-07T08:49:35.848Z,7.53
2023-03-07T08:50:17.624Z,7.55
2023-03-07T08:51:08.514Z,7.82
2023-03-07T08:51:50.287Z,10.48
2023-03-07T08:52:32.808Z,7.97
2023-03-07T08:53:15.441Z,7.85
2023-03-07T08:53:58.969Z,9.15
2023-03-07T08:54:40.826Z,7.15
2023-03-07T08:55:22.479Z,7.25
2023-03-07T08:56:12.142Z,9.35
2023-03-07T08:56:53.948Z,8.57
2023-03-07T08:57:35.600Z,7.80
2023-03-07T08:58:17.241Z,9.13
2023-03-07T08:58:58.935Z,9.57
2023-03-07T08:59:40.608Z,7.57
2023-03-07T09:00:22.636Z,7.15
2023-03-07T09:01:05.801Z,9.85
2023-03-07T09:01:47.437Z,8.38
2023-03-07T09:02:29.197Z,7.57
2023-03-07T09:03:10.857Z,6.88
2023-03-07T09:03:52.534Z,7.40
2023-03-07T09:04:34.234Z,7.78
2023-03-07T09:05:15.914Z,8.45
2023-03-07T09:05:57.628Z,7.68
2023-03-07T09:06:39.316Z,8.45
2023-03-07T09:07:20.969Z,7.15
2023-03-07T09:08:03.341Z,7.60
2023-03-07T09:08:45.080Z,6.93
2023-03-07T09:09:28.840Z,10.32
2023-03-07T09:10:11.691Z,9.50
2023-03-07T09:10:53.694Z,8.20
2023-03-07T09:11:35.488Z,7.00
2023-03-07T09:12:17.190Z,8.70
2023-03-07T09:12:59.177Z,8.18
2023-03-07T09:13:51.413Z,10.30
2023-03-07T09:14:34.220Z,8.48
2023-03-07T09:15:15.877Z,6.72
2023-03-07T09:15:57.615Z,8.27
2023-03-07T09:16:39.375Z,7.65
2023-03-07T09:17:21.239Z,8.50
2023-03-07T09:18:02.832Z,8.52
2023-03-07T09:18:44.447Z,7.55
2023-03-07T09:19:26.078Z,6.10
2023-03-07T09:20:08.864Z,6.80